DLH4X EDDM-EDDB
Flight info
| Callsign | DLH4X |
|---|---|
| Flight time | 0h 50m |
| Altitude | 28000 |
| Route | AKINI1Q/08L AKINI Y104 MAMOR L132 RUDNO T203 TIVDA/N0416F290 DCT ETVIS DCT NAVEK DCT GAVLI/N0419F300 T203 ATGUP ATGUP1R |
| Aircraft | A321/M-SDE2E3FGIJ1LORWXYZ/HB1 |
Departure
| Time | 2026-04-30 18:58 |
|---|---|
| Airport | Munich Airport (EDDM) |
Arrival
| Time | 2026-04-30 19:48 |
|---|---|
| Airport | Berlin Brandenburg Airport (EDDB) |
| Time | Latitude | Longitude | Altitude | Speed | Heading |
|---|---|---|---|---|---|
| 2026-04-30 18:23 | 48.35643 | 11.79277 | 1480 ft | 1 kts | 263° |
| 2026-04-30 18:25 | 48.35644 | 11.79274 | 1480 ft | 0 kts | 263° |
| 2026-04-30 18:45 | 48.35645 | 11.79288 | 1473 ft | 4 kts | 263° |
| 2026-04-30 18:46 | 48.35648 | 11.79341 | 1474 ft | 4 kts | 263° |
| 2026-04-30 18:46 | 48.35651 | 11.79373 | 1475 ft | 4 kts | 275° |
| 2026-04-30 18:46 | 48.35643 | 11.79409 | 1471 ft | 4 kts | 316° |
| 2026-04-30 18:46 | 48.35622 | 11.79425 | 1474 ft | 3 kts | 353° |
| 2026-04-30 18:47 | 48.35605 | 11.79428 | 1474 ft | 3 kts | 353° |
| 2026-04-30 18:47 | 48.35602 | 11.79428 | 1471 ft | 0 kts | 353° |
| 2026-04-30 18:50 | 48.35603 | 11.79428 | 1475 ft | 1 kts | 353° |
| 2026-04-30 18:50 | 48.35624 | 11.79444 | 1471 ft | 7 kts | 38° |
| 2026-04-30 18:50 | 48.35683 | 11.79516 | 1482 ft | 14 kts | 39° |
| 2026-04-30 18:50 | 48.35787 | 11.79532 | 1479 ft | 15 kts | 353° |
| 2026-04-30 18:51 | 48.35875 | 11.79517 | 1479 ft | 14 kts | 353° |
| 2026-04-30 18:51 | 48.35982 | 11.79498 | 1482 ft | 17 kts | 353° |
| 2026-04-30 18:51 | 48.36092 | 11.79458 | 1477 ft | 15 kts | 310° |
| 2026-04-30 18:51 | 48.36092 | 11.79307 | 1479 ft | 12 kts | 263° |
| 2026-04-30 18:52 | 48.36082 | 11.79173 | 1483 ft | 14 kts | 263° |
| 2026-04-30 18:52 | 48.36070 | 11.79017 | 1485 ft | 16 kts | 263° |
| 2026-04-30 18:52 | 48.36056 | 11.78841 | 1485 ft | 18 kts | 263° |
| 2026-04-30 18:52 | 48.36042 | 11.78645 | 1485 ft | 20 kts | 263° |
| 2026-04-30 18:53 | 48.36025 | 11.78429 | 1477 ft | 22 kts | 263° |
| 2026-04-30 18:53 | 48.36007 | 11.78201 | 1485 ft | 22 kts | 263° |
| 2026-04-30 18:53 | 48.35989 | 11.77972 | 1473 ft | 21 kts | 263° |
| 2026-04-30 18:53 | 48.35973 | 11.77764 | 1481 ft | 16 kts | 263° |
| 2026-04-30 18:54 | 48.36010 | 11.77667 | 1481 ft | 13 kts | 350° |
| 2026-04-30 18:54 | 48.36104 | 11.77663 | 1485 ft | 14 kts | 15° |
| 2026-04-30 18:54 | 48.36164 | 11.77738 | 1479 ft | 5 kts | 53° |
| 2026-04-30 18:54 | 48.36181 | 11.77773 | 1473 ft | 3 kts | 54° |
| 2026-04-30 18:55 | 48.36198 | 11.77808 | 1479 ft | 5 kts | 54° |
| 2026-04-30 18:55 | 48.36263 | 11.77939 | 1480 ft | 10 kts | 52° |
| 2026-04-30 18:55 | 48.36310 | 11.78034 | 1476 ft | 12 kts | 53° |
| 2026-04-30 18:56 | 48.36389 | 11.78221 | 1483 ft | 7 kts | 81° |
| 2026-04-30 18:56 | 48.36389 | 11.78224 | 1483 ft | 0 kts | 83° |
| 2026-04-30 18:56 | 48.36389 | 11.78226 | 1482 ft | 0 kts | 83° |
| 2026-04-30 18:57 | 48.36389 | 11.78230 | 1481 ft | 1 kts | 83° |
| 2026-04-30 18:57 | 48.36399 | 11.78353 | 1485 ft | 43 kts | 83° |
| 2026-04-30 18:57 | 48.36465 | 11.79214 | 1476 ft | 120 kts | 83° |
| 2026-04-30 18:58 | 48.36688 | 11.82207 | 2739 ft | 145 kts | 85° |
| 2026-04-30 18:58 | 48.36805 | 11.83826 | 3233 ft | 165 kts | 84° |
| 2026-04-30 18:58 | 48.37012 | 11.85643 | 3574 ft | 188 kts | 73° |
| 2026-04-30 18:59 | 48.38777 | 11.88755 | 4727 ft | 211 kts | 36° |
| 2026-04-30 19:00 | 48.42825 | 11.93169 | 6381 ft | 256 kts | 57° |
| 2026-04-30 19:00 | 48.43887 | 11.95362 | 7129 ft | 264 kts | 48° |
| 2026-04-30 19:00 | 48.47204 | 11.97902 | 8769 ft | 273 kts | 21° |
| 2026-04-30 19:01 | 48.50820 | 11.99780 | 10482 ft | 277 kts | 21° |
| 2026-04-30 19:01 | 48.52697 | 12.00759 | 10874 ft | 297 kts | 21° |
| 2026-04-30 19:02 | 48.56854 | 12.02935 | 11602 ft | 328 kts | 21° |
| 2026-04-30 19:02 | 48.61176 | 12.05181 | 13061 ft | 333 kts | 21° |
| 2026-04-30 19:03 | 48.65585 | 12.07477 | 14532 ft | 337 kts | 21° |
| 2026-04-30 19:03 | 48.70036 | 12.09811 | 15875 ft | 340 kts | 22° |
| 2026-04-30 19:04 | 48.74533 | 12.12180 | 17198 ft | 344 kts | 23° |
| 2026-04-30 19:04 | 48.78886 | 12.15215 | 18490 ft | 347 kts | 28° |
| 2026-04-30 19:05 | 48.83273 | 12.18383 | 19621 ft | 351 kts | 27° |
| 2026-04-30 19:05 | 48.87697 | 12.21586 | 20698 ft | 355 kts | 27° |
| 2026-04-30 19:06 | 48.92195 | 12.24794 | 21759 ft | 359 kts | 27° |
| 2026-04-30 19:06 | 48.94468 | 12.26390 | 22275 ft | 361 kts | 26° |
| 2026-04-30 19:06 | 48.99060 | 12.29591 | 23139 ft | 365 kts | 26° |
| 2026-04-30 19:07 | 49.03702 | 12.32846 | 24119 ft | 369 kts | 26° |
| 2026-04-30 19:07 | 49.06032 | 12.34501 | 24554 ft | 371 kts | 26° |
| 2026-04-30 19:08 | 49.10733 | 12.37850 | 25434 ft | 374 kts | 27° |
| 2026-04-30 19:08 | 49.15462 | 12.41201 | 26306 ft | 376 kts | 27° |
| 2026-04-30 19:08 | 49.17845 | 12.42889 | 26740 ft | 378 kts | 27° |
| 2026-04-30 19:09 | 49.22625 | 12.46288 | 27615 ft | 380 kts | 27° |
| 2026-04-30 19:09 | 49.25027 | 12.48006 | 28031 ft | 382 kts | 27° |
| 2026-04-30 19:09 | 49.27436 | 12.49733 | 28389 ft | 383 kts | 28° |
| 2026-04-30 19:10 | 49.32269 | 12.53200 | 28930 ft | 384 kts | 28° |
| 2026-04-30 19:10 | 49.36698 | 12.57703 | 29415 ft | 379 kts | 38° |
| 2026-04-30 19:11 | 49.38770 | 12.60088 | 29439 ft | 368 kts | 38° |
| 2026-04-30 19:11 | 49.42836 | 12.64765 | 29436 ft | 364 kts | 37° |
| 2026-04-30 19:12 | 49.47334 | 12.68389 | 29437 ft | 366 kts | 28° |
| 2026-04-30 19:12 | 49.51897 | 12.71737 | 29438 ft | 367 kts | 28° |
| 2026-04-30 19:13 | 49.61142 | 12.78588 | 29434 ft | 367 kts | 28° |
| 2026-04-30 19:14 | 49.65808 | 12.81699 | 29437 ft | 371 kts | 19° |
| 2026-04-30 19:14 | 49.70935 | 12.83020 | 29434 ft | 375 kts | 13° |
| 2026-04-30 19:15 | 49.76103 | 12.84194 | 29436 ft | 375 kts | 14° |
| 2026-04-30 19:15 | 49.83846 | 12.85985 | 29439 ft | 375 kts | 14° |
| 2026-04-30 19:16 | 49.89007 | 12.87177 | 29444 ft | 375 kts | 13° |
| 2026-04-30 19:17 | 49.96632 | 12.89557 | 29427 ft | 371 kts | 20° |
| 2026-04-30 19:17 | 50.04054 | 12.92917 | 29433 ft | 370 kts | 20° |
| 2026-04-30 19:18 | 50.11475 | 12.96281 | 29431 ft | 370 kts | 20° |
| 2026-04-30 19:19 | 50.16425 | 12.98518 | 29423 ft | 370 kts | 20° |
| 2026-04-30 19:19 | 50.23846 | 13.01883 | 29424 ft | 370 kts | 20° |
| 2026-04-30 19:20 | 50.28794 | 13.04140 | 29427 ft | 371 kts | 20° |
| 2026-04-30 19:21 | 50.36246 | 13.07437 | 29430 ft | 371 kts | 20° |
| 2026-04-30 19:22 | 50.46145 | 13.11814 | 29441 ft | 371 kts | 20° |
| 2026-04-30 19:23 | 50.60344 | 13.20823 | 29431 ft | 371 kts | 19° |
| 2026-04-30 19:24 | 50.67840 | 13.23960 | 29436 ft | 372 kts | 19° |
| 2026-04-30 19:25 | 50.80374 | 13.29192 | 29441 ft | 373 kts | 19° |
| 2026-04-30 19:26 | 50.90412 | 13.33412 | 29436 ft | 373 kts | 18° |
| 2026-04-30 19:27 | 50.97915 | 13.36571 | 28465 ft | 370 kts | 19° |
| 2026-04-30 19:27 | 51.02856 | 13.38712 | 27234 ft | 366 kts | 19° |
| 2026-04-30 19:28 | 51.05305 | 13.39784 | 26656 ft | 365 kts | 19° |
| 2026-04-30 19:28 | 51.10171 | 13.41922 | 25570 ft | 360 kts | 19° |
| 2026-04-30 19:29 | 51.14969 | 13.44025 | 24518 ft | 356 kts | 19° |
| 2026-04-30 19:29 | 51.17353 | 13.45069 | 24000 ft | 354 kts | 19° |
| 2026-04-30 19:30 | 51.24411 | 13.48144 | 22262 ft | 347 kts | 19° |
| 2026-04-30 19:30 | 51.29045 | 13.50177 | 21605 ft | 344 kts | 19° |
| 2026-04-30 19:31 | 51.33639 | 13.52207 | 21091 ft | 342 kts | 19° |
| 2026-04-30 19:31 | 51.35927 | 13.53218 | 20844 ft | 341 kts | 19° |
| 2026-04-30 19:31 | 51.40484 | 13.55225 | 20422 ft | 339 kts | 19° |
| 2026-04-30 19:32 | 51.41988 | 13.55890 | 20419 ft | 338 kts | 19° |
| 2026-04-30 19:32 | 51.44241 | 13.56889 | 20076 ft | 334 kts | 19° |
| 2026-04-30 19:32 | 51.46496 | 13.57765 | 19482 ft | 334 kts | 11° |
| 2026-04-30 19:32 | 51.48831 | 13.57611 | 18807 ft | 342 kts | 353° |
| 2026-04-30 19:33 | 51.51081 | 13.56273 | 17975 ft | 347 kts | 343° |
| 2026-04-30 19:33 | 51.53290 | 13.54722 | 17206 ft | 346 kts | 342° |
| 2026-04-30 19:33 | 51.55479 | 13.53160 | 16489 ft | 343 kts | 342° |
| 2026-04-30 19:33 | 51.57653 | 13.51602 | 15901 ft | 341 kts | 341° |
| 2026-04-30 19:34 | 51.59813 | 13.50060 | 15327 ft | 338 kts | 341° |
| 2026-04-30 19:34 | 51.61955 | 13.48537 | 14770 ft | 336 kts | 341° |
| 2026-04-30 19:34 | 51.66200 | 13.45529 | 13596 ft | 331 kts | 341° |
| 2026-04-30 19:35 | 51.68304 | 13.44041 | 13000 ft | 329 kts | 341° |
| 2026-04-30 19:35 | 51.70388 | 13.42567 | 12420 ft | 326 kts | 341° |
| 2026-04-30 19:35 | 51.72456 | 13.41103 | 11844 ft | 323 kts | 341° |
| 2026-04-30 19:35 | 51.74506 | 13.39649 | 11280 ft | 321 kts | 341° |
| 2026-04-30 19:36 | 51.76543 | 13.38197 | 10724 ft | 319 kts | 341° |
| 2026-04-30 19:36 | 51.78559 | 13.36758 | 10178 ft | 316 kts | 340° |
| 2026-04-30 19:36 | 51.82445 | 13.33977 | 9693 ft | 291 kts | 340° |
| 2026-04-30 19:37 | 51.84254 | 13.32677 | 9506 ft | 280 kts | 341° |
| 2026-04-30 19:37 | 51.86016 | 13.31406 | 9155 ft | 276 kts | 340° |
| 2026-04-30 19:37 | 51.87722 | 13.29982 | 8901 ft | 277 kts | 335° |
| 2026-04-30 19:37 | 51.89408 | 13.28471 | 8677 ft | 277 kts | 335° |
| 2026-04-30 19:38 | 51.91068 | 13.26981 | 8526 ft | 277 kts | 335° |
| 2026-04-30 19:38 | 51.92760 | 13.25461 | 8370 ft | 278 kts | 335° |
| 2026-04-30 19:38 | 51.94458 | 13.23957 | 8216 ft | 277 kts | 338° |
| 2026-04-30 19:38 | 51.96232 | 13.22812 | 8062 ft | 275 kts | 344° |
| 2026-04-30 19:39 | 51.98039 | 13.21804 | 7862 ft | 274 kts | 345° |
| 2026-04-30 19:39 | 51.99844 | 13.20816 | 7663 ft | 273 kts | 345° |
| 2026-04-30 19:39 | 52.01647 | 13.19837 | 7465 ft | 273 kts | 345° |
| 2026-04-30 19:39 | 52.03443 | 13.18867 | 7262 ft | 271 kts | 345° |
| 2026-04-30 19:40 | 52.05235 | 13.17912 | 7069 ft | 270 kts | 345° |
| 2026-04-30 19:40 | 52.07006 | 13.16972 | 6867 ft | 264 kts | 345° |
| 2026-04-30 19:40 | 52.08724 | 13.16062 | 6667 ft | 256 kts | 345° |
| 2026-04-30 19:40 | 52.10390 | 13.15182 | 6457 ft | 248 kts | 345° |
| 2026-04-30 19:41 | 52.12008 | 13.14333 | 6247 ft | 241 kts | 345° |
| 2026-04-30 19:41 | 52.13582 | 13.13513 | 6032 ft | 235 kts | 345° |
| 2026-04-30 19:41 | 52.15133 | 13.12714 | 5828 ft | 233 kts | 345° |
| 2026-04-30 19:41 | 52.16676 | 13.11928 | 5633 ft | 232 kts | 345° |
| 2026-04-30 19:42 | 52.18217 | 13.11155 | 5439 ft | 231 kts | 346° |
| 2026-04-30 19:42 | 52.19791 | 13.10905 | 5247 ft | 227 kts | 12° |
| 2026-04-30 19:42 | 52.21226 | 13.11892 | 5053 ft | 226 kts | 32° |
| 2026-04-30 19:42 | 52.22535 | 13.13311 | 4839 ft | 226 kts | 35° |
| 2026-04-30 19:43 | 52.23814 | 13.14787 | 4630 ft | 225 kts | 36° |
| 2026-04-30 19:43 | 52.25074 | 13.16250 | 4481 ft | 218 kts | 35° |
| 2026-04-30 19:43 | 52.26288 | 13.17678 | 4267 ft | 212 kts | 36° |
| 2026-04-30 19:44 | 52.28307 | 13.20807 | 3736 ft | 198 kts | 63° |
| 2026-04-30 19:44 | 52.28802 | 13.22902 | 3312 ft | 198 kts | 69° |
| 2026-04-30 19:44 | 52.29257 | 13.24996 | 2991 ft | 192 kts | 66° |
| 2026-04-30 19:44 | 52.29769 | 13.26970 | 2736 ft | 186 kts | 65° |
| 2026-04-30 19:45 | 52.30255 | 13.28919 | 2511 ft | 185 kts | 66° |
| 2026-04-30 19:45 | 52.30716 | 13.30872 | 2246 ft | 184 kts | 67° |
| 2026-04-30 19:45 | 52.31171 | 13.32818 | 1975 ft | 183 kts | 67° |
| 2026-04-30 19:45 | 52.31633 | 13.34717 | 1733 ft | 177 kts | 66° |
| 2026-04-30 19:46 | 52.32078 | 13.36564 | 1499 ft | 171 kts | 66° |
| 2026-04-30 19:46 | 52.32493 | 13.38312 | 1330 ft | 158 kts | 67° |
| 2026-04-30 19:46 | 52.32879 | 13.39942 | 1103 ft | 151 kts | 66° |
| 2026-04-30 19:46 | 52.33266 | 13.41507 | 864 ft | 146 kts | 67° |
| 2026-04-30 19:47 | 52.33636 | 13.43036 | 672 ft | 143 kts | 68° |
| 2026-04-30 19:47 | 52.33872 | 13.44034 | 549 ft | 142 kts | 68° |
| 2026-04-30 19:47 | 52.34351 | 13.46026 | 311 ft | 140 kts | 68° |
| 2026-04-30 19:47 | 52.34699 | 13.47506 | 162 ft | 136 kts | 68° |
| 2026-04-30 19:48 | 52.35001 | 13.48769 | 154 ft | 96 kts | 69° |
| 2026-04-30 19:48 | 52.35181 | 13.49524 | 154 ft | 41 kts | 69° |
| 2026-04-30 19:48 | 52.35289 | 13.49862 | 155 ft | 25 kts | 48° |
| 2026-04-30 19:48 | 52.35387 | 13.50011 | 155 ft | 14 kts | 38° |
| 2026-04-30 19:49 | 52.35470 | 13.50119 | 155 ft | 15 kts | 38° |
| 2026-04-30 19:49 | 52.35543 | 13.50215 | 155 ft | 4 kts | 38° |
| 2026-04-30 19:49 | 52.35577 | 13.50259 | 155 ft | 8 kts | 39° |
| 2026-04-30 19:50 | 52.35611 | 13.50345 | 155 ft | 11 kts | 68° |
| 2026-04-30 19:50 | 52.35641 | 13.50472 | 155 ft | 13 kts | 69° |
| 2026-04-30 19:50 | 52.35677 | 13.50625 | 155 ft | 16 kts | 69° |
| 2026-04-30 19:50 | 52.35763 | 13.50672 | 155 ft | 14 kts | 340° |
| 2026-04-30 19:51 | 52.35864 | 13.50638 | 155 ft | 16 kts | 12° |
| 2026-04-30 19:51 | 52.35967 | 13.50621 | 155 ft | 15 kts | 341° |
| 2026-04-30 19:51 | 52.36068 | 13.50557 | 155 ft | 17 kts | 339° |
| 2026-04-30 19:51 | 52.36186 | 13.50482 | 155 ft | 19 kts | 339° |
| 2026-04-30 19:52 | 52.36317 | 13.50399 | 155 ft | 21 kts | 339° |
| 2026-04-30 19:52 | 52.36410 | 13.50340 | 155 ft | 15 kts | 339° |
| 2026-04-30 19:52 | 52.36516 | 13.50273 | 155 ft | 17 kts | 339° |
| 2026-04-30 19:52 | 52.36574 | 13.50275 | 155 ft | 6 kts | 70° |
| 2026-04-30 19:53 | 52.36591 | 13.50350 | 155 ft | 7 kts | 69° |
| 2026-04-30 19:53 | 52.36602 | 13.50395 | 155 ft | 5 kts | 69° |
| 2026-04-30 19:53 | 52.36611 | 13.50433 | 155 ft | 3 kts | 69° |
| 2026-04-30 19:53 | 52.36615 | 13.50449 | 155 ft | 1 kts | 69° |
| 2026-04-30 19:54 | 52.36615 | 13.50451 | 155 ft | 0 kts | 69° |